createdAt,value
2022-08-10T00:00:09.811Z,19.90
2022-08-10T00:02:36.747Z,19.90
2022-08-10T00:05:04.302Z,19.80
2022-08-10T00:07:31.173Z,19.80
2022-08-10T00:09:58.174Z,19.70
2022-08-10T00:12:54.008Z,19.70
2022-08-10T00:15:52.845Z,19.60
2022-08-10T00:18:00.858Z,19.60
2022-08-10T00:20:27.772Z,19.60
2022-08-10T00:22:57.432Z,19.50
2022-08-10T00:25:25.146Z,19.50
2022-08-10T00:28:03.281Z,19.40
2022-08-10T00:30:30.873Z,19.40
2022-08-10T00:32:57.662Z,19.30
2022-08-10T00:35:24.420Z,19.30
2022-08-10T00:37:56.304Z,19.30
2022-08-10T00:40:36.868Z,19.20
2022-08-10T00:43:05.946Z,19.20
2022-08-10T00:45:33.014Z,19.10
2022-08-10T00:47:59.765Z,19.10
2022-08-10T00:50:26.599Z,19.10
2022-08-10T00:52:53.577Z,19.00
2022-08-10T00:55:20.942Z,19.00
2022-08-10T00:57:54.989Z,19.00
2022-08-10T01:00:23.013Z,18.90
2022-08-10T01:02:49.855Z,18.90
2022-08-10T01:05:16.872Z,18.90
2022-08-10T01:08:03.054Z,18.80
2022-08-10T01:10:38.186Z,18.80
2022-08-10T01:13:21.021Z,18.70
2022-08-10T01:16:00.137Z,18.70
2022-08-10T01:18:27.050Z,18.70
2022-08-10T01:21:24.283Z,18.60
2022-08-10T01:24:03.754Z,18.60
2022-08-10T01:26:59.787Z,18.50
2022-08-10T01:29:53.810Z,18.50
2022-08-10T01:32:33.179Z,18.50
2022-08-10T01:35:11.643Z,18.40
2022-08-10T01:37:51.899Z,18.40
2022-08-10T01:40:25.935Z,18.40
2022-08-10T01:42:55.948Z,18.40
2022-08-10T01:45:28.202Z,18.30
2022-08-10T01:48:16.961Z,18.30
2022-08-10T01:50:59.585Z,18.30
2022-08-10T01:53:52.096Z,18.20
2022-08-10T01:56:21.584Z,18.20
2022-08-10T01:58:56.055Z,18.20
2022-08-10T02:01:28.436Z,18.20
2022-08-10T02:04:05.134Z,18.10
2022-08-10T02:06:37.059Z,18.10
2022-08-10T02:09:07.110Z,18.10
2022-08-10T02:12:05.900Z,18.00
2022-08-10T02:14:33.452Z,18.10
2022-08-10T02:17:06.186Z,18.00
2022-08-10T02:19:35.720Z,18.00
2022-08-10T02:22:36.308Z,18.00
2022-08-10T02:24:52.611Z,18.00
2022-08-10T02:27:23.264Z,18.00
2022-08-10T02:29:53.190Z,17.90
2022-08-10T02:32:35.894Z,17.90
2022-08-10T02:35:06.876Z,17.90
2022-08-10T02:37:37.416Z,17.80
2022-08-10T02:40:04.870Z,17.80
2022-08-10T02:45:22.694Z,17.80
2022-08-10T02:45:33.813Z,17.80
2022-08-10T02:48:07.132Z,17.70
2022-08-10T02:50:36.542Z,17.70
2022-08-10T02:53:54.713Z,17.70
2022-08-10T02:56:16.380Z,17.70
2022-08-10T02:58:53.218Z,17.60
2022-08-10T03:01:25.893Z,17.60
2022-08-10T03:04:05.152Z,17.60
2022-08-10T03:06:38.540Z,17.50
2022-08-10T03:09:09.515Z,17.50
2022-08-10T03:12:37.841Z,17.50
2022-08-10T03:14:26.706Z,17.40
2022-08-10T03:16:55.497Z,17.40
2022-08-10T03:20:35.414Z,17.40
2022-08-10T03:22:12.632Z,17.40
2022-08-10T03:24:41.256Z,17.30
2022-08-10T03:27:09.232Z,17.30
2022-08-10T03:30:23.185Z,17.30
2022-08-10T03:32:25.629Z,17.30
2022-08-10T03:34:53.803Z,17.20
2022-08-10T03:37:20.759Z,17.20
2022-08-10T03:39:47.539Z,17.20
2022-08-10T03:42:15.548Z,17.10
2022-08-10T03:44:45.214Z,17.10
2022-08-10T03:47:17.586Z,17.10
2022-08-10T03:49:47.420Z,17.10
2022-08-10T03:52:16.521Z,17.10
2022-08-10T03:54:43.575Z,17.00
2022-08-10T03:57:10.894Z,17.00
2022-08-10T03:59:38.275Z,17.00
2022-08-10T04:02:45.592Z,17.00
2022-08-10T04:04:55.339Z,17.00
2022-08-10T04:07:22.245Z,17.00
2022-08-10T04:09:54.915Z,16.90
2022-08-10T04:12:22.946Z,16.90
2022-08-10T04:14:52.925Z,16.90
2022-08-10T04:18:01.281Z,16.90
2022-08-10T04:20:38.003Z,16.90
2022-08-10T04:23:19.809Z,16.90
2022-08-10T04:25:46.789Z,16.90
2022-08-10T04:28:14.091Z,16.90
2022-08-10T04:30:41.912Z,16.80
2022-08-10T04:33:11.090Z,16.80
2022-08-10T04:35:39.081Z,16.80
2022-08-10T04:38:06.857Z,16.80
2022-08-10T04:40:33.668Z,16.80
2022-08-10T04:43:10.469Z,16.80
2022-08-10T04:45:49.928Z,16.80
2022-08-10T04:48:42.575Z,16.80
2022-08-10T04:51:17.675Z,16.80
2022-08-10T04:54:04.777Z,16.80
2022-08-10T04:56:35.371Z,16.80
2022-08-10T04:59:02.149Z,16.80
2022-08-10T05:02:30.214Z,16.80
2022-08-10T05:04:36.542Z,16.80
2022-08-10T05:07:04.862Z,16.80
2022-08-10T05:09:31.719Z,16.80
2022-08-10T05:11:58.485Z,16.80
2022-08-10T05:14:25.187Z,16.80
2022-08-10T05:16:51.910Z,16.80
2022-08-10T05:19:21.196Z,16.90
2022-08-10T05:22:06.358Z,16.90
2022-08-10T05:24:33.337Z,16.90
2022-08-10T05:27:09.285Z,16.90
2022-08-10T05:29:37.515Z,17.00
2022-08-10T05:32:04.772Z,16.90
2022-08-10T05:34:34.682Z,17.00
2022-08-10T05:37:01.971Z,17.00
2022-08-10T05:39:30.558Z,17.00
2022-08-10T05:42:01.567Z,17.10
2022-08-10T05:44:29.744Z,17.10
2022-08-10T05:46:56.934Z,17.10
2022-08-10T05:49:23.761Z,17.10
2022-08-10T05:51:51.355Z,17.20
2022-08-10T05:54:18.385Z,17.20
2022-08-10T05:56:55.099Z,17.20
2022-08-10T06:00:12.614Z,17.30
2022-08-10T06:02:31.816Z,17.30
2022-08-10T06:05:23.394Z,17.40
2022-08-10T06:08:03.090Z,17.40
2022-08-10T06:10:32.997Z,17.50
2022-08-10T06:13:29.987Z,17.60
2022-08-10T06:16:02.401Z,17.60
2022-08-10T06:18:30.040Z,17.70
2022-08-10T06:20:58.520Z,17.80
2022-08-10T06:23:29.330Z,17.90
2022-08-10T06:26:10.367Z,17.90
2022-08-10T06:29:01.998Z,18.00
2022-08-10T06:31:48.009Z,18.10
2022-08-10T06:34:24.330Z,18.20
2022-08-10T06:36:53.261Z,18.30
2022-08-10T06:39:33.702Z,18.30
2022-08-10T06:42:22.144Z,18.40
2022-08-10T06:44:54.448Z,18.40
2022-08-10T06:47:26.546Z,18.50
2022-08-10T06:50:00.078Z,18.60
2022-08-10T06:52:29.976Z,18.60
2022-08-10T06:54:59.376Z,18.70
2022-08-10T06:57:31.110Z,18.80
2022-08-10T07:00:01.061Z,18.80
2022-08-10T07:02:50.640Z,18.90
2022-08-10T07:05:25.193Z,19.00
2022-08-10T07:07:56.983Z,19.00
2022-08-10T07:10:45.570Z,19.20
2022-08-10T07:13:15.799Z,19.40
2022-08-10T07:16:03.365Z,20.50
2022-08-10T07:18:32.656Z,21.90
2022-08-10T07:21:02.101Z,23.10
2022-08-10T07:23:56.939Z,24.20
2022-08-10T07:26:20.047Z,25.30
2022-08-10T07:28:50.265Z,26.30
2022-08-10T07:31:56.425Z,27.20
2022-08-10T07:34:09.551Z,27.90
2022-08-10T07:36:39.383Z,28.60
2022-08-10T07:39:07.403Z,29.20
2022-08-10T07:41:41.358Z,29.70
2022-08-10T07:44:11.055Z,30.20
2022-08-10T07:46:44.557Z,30.70
2022-08-10T07:49:19.415Z,31.10
2022-08-10T07:51:54.937Z,31.50
2022-08-10T07:54:24.450Z,31.90
2022-08-10T07:56:54.314Z,32.10
2022-08-10T07:59:35.541Z,32.40
2022-08-10T08:02:05.130Z,32.60
2022-08-10T08:04:34.063Z,32.80
2022-08-10T08:07:04.512Z,32.90
2022-08-10T08:09:33.625Z,33.00
2022-08-10T08:12:01.902Z,33.00
2022-08-10T08:14:29.908Z,33.00
2022-08-10T08:16:58.582Z,33.00
2022-08-10T08:19:28.397Z,33.00
2022-08-10T08:24:05.991Z,33.00
2022-08-10T08:24:52.448Z,32.90
2022-08-10T08:27:21.158Z,32.90
2022-08-10T08:29:51.084Z,32.90
2022-08-10T08:32:22.242Z,32.90
2022-08-10T08:34:52.610Z,33.00
2022-08-10T08:38:33.327Z,33.10
2022-08-10T08:40:16.562Z,33.20
2022-08-10T08:43:04.665Z,33.40
2022-08-10T08:45:48.268Z,33.50
2022-08-10T08:48:56.820Z,33.60
2022-08-10T08:52:09.442Z,33.80
2022-08-10T08:54:38.240Z,34.10
2022-08-10T08:57:45.678Z,34.30
2022-08-10T09:00:35.194Z,34.40
2022-08-10T09:03:24.997Z,34.60
2022-08-10T09:06:15.786Z,34.60
2022-08-10T09:09:17.911Z,34.80
2022-08-10T09:12:13.296Z,34.90
2022-08-10T09:15:40.481Z,35.00
2022-08-10T09:18:32.519Z,35.10
2022-08-10T09:21:58.548Z,35.30
2022-08-10T09:24:58.684Z,35.30
2022-08-10T09:27:44.192Z,35.60
2022-08-10T09:30:29.081Z,35.70
2022-08-10T09:36:20.093Z,35.90
2022-08-10T09:36:20.493Z,36.00
2022-08-10T09:40:56.531Z,36.20
2022-08-10T09:42:42.598Z,36.40
2022-08-10T09:45:38.675Z,36.50
2022-08-10T09:48:30.330Z,36.60
2022-08-10T09:51:45.926Z,36.70
2022-08-10T09:54:54.689Z,36.90
2022-08-10T09:57:44.725Z,37.00
2022-08-10T10:00:17.778Z,37.00
2022-08-10T10:03:09.145Z,37.10
2022-08-10T10:06:13.277Z,37.10
2022-08-10T10:08:58.523Z,37.10
2022-08-10T10:11:47.795Z,37.20
2022-08-10T10:14:35.578Z,37.20
2022-08-10T10:17:17.249Z,37.30
2022-08-10T10:20:02.708Z,37.50
2022-08-10T10:22:42.715Z,37.60
2022-08-10T10:25:23.905Z,37.70
2022-08-10T10:28:25.667Z,37.80
2022-08-10T10:31:38.359Z,37.80
2022-08-10T10:34:29.419Z,37.80
2022-08-10T10:36:59.840Z,37.80
2022-08-10T10:39:27.449Z,37.80
2022-08-10T10:42:47.120Z,37.90
2022-08-10T10:45:19.535Z,38.00
2022-08-10T10:48:07.724Z,38.10
2022-08-10T10:51:09.989Z,38.10
2022-08-10T10:53:56.963Z,38.20
2022-08-10T10:57:04.426Z,38.30
2022-08-10T10:59:55.931Z,38.50
2022-08-10T11:02:36.622Z,38.50
2022-08-10T11:05:20.490Z,38.60
2022-08-10T11:07:53.501Z,38.70
2022-08-10T11:10:46.249Z,38.90
2022-08-10T11:14:26.526Z,39.00
2022-08-10T11:17:14.496Z,39.10
2022-08-10T11:20:15.580Z,39.30
2022-08-10T11:22:59.949Z,39.40
2022-08-10T11:25:32.494Z,39.40
2022-08-10T11:28:20.576Z,39.60
2022-08-10T11:31:01.206Z,39.70
2022-08-10T11:36:53.334Z,39.90
2022-08-10T11:39:25.388Z,40.00
2022-08-10T11:42:18.499Z,40.10
2022-08-10T11:45:00.189Z,40.10
2022-08-10T11:47:44.939Z,40.00
2022-08-10T11:50:20.029Z,40.00
2022-08-10T11:52:54.163Z,40.00
2022-08-10T11:55:23.940Z,40.00
2022-08-10T11:57:55.864Z,40.00
2022-08-10T12:00:32.322Z,39.90
2022-08-10T12:03:03.885Z,39.90
2022-08-10T12:05:54.015Z,40.00
2022-08-10T12:10:02.426Z,40.00
2022-08-10T12:11:24.266Z,40.00
2022-08-10T12:14:20.342Z,40.00
2022-08-10T12:16:52.567Z,40.20
2022-08-10T12:19:28.124Z,40.20
2022-08-10T12:22:06.230Z,40.20
2022-08-10T12:24:39.028Z,40.30
2022-08-10T12:27:24.023Z,40.30
2022-08-10T12:30:03.269Z,40.30
2022-08-10T12:32:58.803Z,40.40
2022-08-10T12:35:41.944Z,40.40
2022-08-10T12:38:35.745Z,40.40
2022-08-10T12:41:45.070Z,40.40
2022-08-10T12:44:41.143Z,40.50
2022-08-10T12:47:19.305Z,40.50
2022-08-10T12:50:23.793Z,40.60
2022-08-10T12:52:55.408Z,40.60
2022-08-10T12:55:23.640Z,40.70
2022-08-10T12:57:53.835Z,40.70
2022-08-10T13:00:26.556Z,40.70
2022-08-10T13:02:54.212Z,40.70
2022-08-10T13:05:25.438Z,40.70
2022-08-10T13:08:26.477Z,40.70
2022-08-10T13:11:03.313Z,40.70
2022-08-10T13:13:36.865Z,40.70
2022-08-10T13:16:05.844Z,40.70
2022-08-10T13:18:39.315Z,40.80
2022-08-10T13:21:19.849Z,40.80
2022-08-10T13:24:04.933Z,40.80
2022-08-10T13:26:37.592Z,40.80
2022-08-10T13:29:26.434Z,40.90
2022-08-10T13:32:04.051Z,40.80
2022-08-10T13:34:44.685Z,40.80
2022-08-10T13:37:16.154Z,40.80
2022-08-10T13:39:58.291Z,40.80
2022-08-10T13:42:38.414Z,40.90
2022-08-10T13:45:17.398Z,40.70
2022-08-10T13:47:49.593Z,40.60
2022-08-10T13:50:33.297Z,40.50
2022-08-10T13:53:06.850Z,40.50
2022-08-10T13:55:55.046Z,40.40
2022-08-10T13:58:34.189Z,40.40
2022-08-10T14:01:09.069Z,40.40
2022-08-10T14:03:38.109Z,40.30
2022-08-10T14:06:07.475Z,40.20
2022-08-10T14:08:36.042Z,40.20
2022-08-10T14:11:11.155Z,40.10
2022-08-10T14:13:46.015Z,40.10
2022-08-10T14:16:14.181Z,40.10
2022-08-10T14:18:44.784Z,40.00
2022-08-10T14:21:12.875Z,40.00
2022-08-10T14:23:52.383Z,40.00
2022-08-10T14:26:29.436Z,39.90
2022-08-10T14:29:10.745Z,39.90
2022-08-10T14:32:01.883Z,39.80
2022-08-10T14:36:16.159Z,39.60
2022-08-10T14:37:37.478Z,39.40
2022-08-10T14:40:07.817Z,39.30
2022-08-10T14:42:49.293Z,39.20
2022-08-10T14:45:29.545Z,39.10
2022-08-10T14:48:18.299Z,39.10
2022-08-10T14:50:56.203Z,39.00
2022-08-10T14:53:30.126Z,38.90
2022-08-10T14:56:11.316Z,38.80
2022-08-10T14:59:05.784Z,38.70
2022-08-10T15:02:01.014Z,38.70
2022-08-10T15:04:24.723Z,38.70
2022-08-10T15:07:02.630Z,38.70
2022-08-10T15:10:01.068Z,38.60
2022-08-10T15:12:27.121Z,38.50
2022-08-10T15:14:58.627Z,38.40
2022-08-10T15:17:35.307Z,38.30
2022-08-10T15:20:28.748Z,38.20
2022-08-10T15:23:08.337Z,38.10
2022-08-10T15:25:59.395Z,38.10
2022-08-10T15:28:30.628Z,38.00
2022-08-10T15:31:19.554Z,37.90
2022-08-10T15:34:08.505Z,37.90
2022-08-10T15:37:17.038Z,37.90
2022-08-10T15:40:20.936Z,37.90
2022-08-10T15:42:59.656Z,37.80
2022-08-10T15:45:26.801Z,37.80
2022-08-10T15:48:03.407Z,37.70
2022-08-10T15:50:43.651Z,37.70
2022-08-10T15:53:18.657Z,37.60
2022-08-10T15:55:59.515Z,37.50
2022-08-10T15:58:40.071Z,37.40
2022-08-10T16:02:14.482Z,37.40
2022-08-10T16:04:32.320Z,37.40
2022-08-10T16:07:06.251Z,37.30
2022-08-10T16:10:22.148Z,37.20
2022-08-10T16:12:36.666Z,37.00
2022-08-10T16:15:17.560Z,36.80
2022-08-10T16:17:56.169Z,36.70
2022-08-10T16:20:31.152Z,36.70
2022-08-10T16:23:02.142Z,36.60
2022-08-10T16:25:48.327Z,36.50
2022-08-10T16:28:23.360Z,36.40
2022-08-10T16:30:55.680Z,36.20
2022-08-10T16:33:54.287Z,36.10
2022-08-10T16:36:18.394Z,36.00
2022-08-10T16:38:48.306Z,35.90
2022-08-10T16:42:02.160Z,35.80
2022-08-10T16:44:07.407Z,35.70
2022-08-10T16:46:34.863Z,35.60
2022-08-10T16:49:02.591Z,35.40
2022-08-10T16:51:30.710Z,35.40
2022-08-10T16:54:03.155Z,35.20
2022-08-10T16:56:49.132Z,35.10
2022-08-10T16:59:21.145Z,35.00
2022-08-10T17:01:54.034Z,34.90
2022-08-10T17:04:23.324Z,34.90
2022-08-10T17:07:14.706Z,34.70
2022-08-10T17:09:47.352Z,34.60
2022-08-10T17:12:18.240Z,34.40
2022-08-10T17:14:45.681Z,34.30
2022-08-10T17:17:27.285Z,34.10
2022-08-10T17:20:30.468Z,34.00
2022-08-10T17:22:54.481Z,33.90
2022-08-10T17:25:25.617Z,33.80
2022-08-10T17:28:16.561Z,33.70
2022-08-10T17:31:18.945Z,33.50
2022-08-10T17:33:58.122Z,33.40
2022-08-10T17:36:29.862Z,33.20
2022-08-10T17:38:57.177Z,33.10
2022-08-10T17:41:28.859Z,33.00
2022-08-10T17:44:06.487Z,32.80
2022-08-10T17:46:41.245Z,32.70
2022-08-10T17:49:10.769Z,32.60
2022-08-10T17:51:41.695Z,32.50
2022-08-10T17:54:23.665Z,32.40
2022-08-10T17:56:52.437Z,32.30
2022-08-10T17:59:24.562Z,32.10
2022-08-10T18:01:58.859Z,32.00
2022-08-10T18:04:35.527Z,31.90
2022-08-10T18:07:09.997Z,31.80
2022-08-10T18:09:42.399Z,31.70
2022-08-10T18:12:22.710Z,31.50
2022-08-10T18:14:56.544Z,31.40
2022-08-10T18:17:34.066Z,31.30
2022-08-10T18:20:07.912Z,31.20
2022-08-10T18:22:43.594Z,31.00
2022-08-10T18:25:17.705Z,31.00
2022-08-10T18:28:03.926Z,30.90
2022-08-10T18:30:45.091Z,30.70
2022-08-10T18:33:14.474Z,30.60
2022-08-10T18:35:43.704Z,30.50
2022-08-10T18:38:12.976Z,30.40
2022-08-10T18:40:43.969Z,30.30
2022-08-10T18:44:05.602Z,30.20
2022-08-10T18:46:00.800Z,30.10
2022-08-10T18:48:48.668Z,29.90
2022-08-10T18:51:22.297Z,29.80
2022-08-10T18:54:38.991Z,29.70
2022-08-10T18:57:17.565Z,29.60
2022-08-10T19:00:03.871Z,29.40
2022-08-10T19:02:53.003Z,29.20
2022-08-10T19:05:41.983Z,29.10
2022-08-10T19:08:31.255Z,29.00
2022-08-10T19:11:13.815Z,28.80
2022-08-10T19:14:06.722Z,28.70
2022-08-10T19:17:04.378Z,28.60
2022-08-10T19:20:00.821Z,28.40
2022-08-10T19:22:32.323Z,28.30
2022-08-10T19:25:17.041Z,28.10
2022-08-10T19:27:57.808Z,28.00
2022-08-10T19:30:45.236Z,27.90
2022-08-10T19:33:22.284Z,27.80
2022-08-10T19:36:16.748Z,27.70
2022-08-10T19:38:56.101Z,27.60
2022-08-10T19:41:41.900Z,27.50
2022-08-10T19:44:37.583Z,27.30
2022-08-10T19:47:28.569Z,27.20
2022-08-10T19:50:03.024Z,27.10
2022-08-10T19:52:38.531Z,27.00
2022-08-10T19:55:44.235Z,26.90
2022-08-10T19:58:29.536Z,26.80
2022-08-10T20:00:57.873Z,26.70
2022-08-10T20:03:33.797Z,26.60
2022-08-10T20:06:28.153Z,26.50
2022-08-10T20:09:13.710Z,26.40
2022-08-10T20:12:00.641Z,26.40
2022-08-10T20:14:49.520Z,26.30
2022-08-10T20:17:28.210Z,26.20
2022-08-10T20:20:10.774Z,26.10
2022-08-10T20:22:45.674Z,26.00
2022-08-10T20:25:17.941Z,25.90
2022-08-10T20:27:56.985Z,25.90
2022-08-10T20:30:32.068Z,25.80
2022-08-10T20:33:16.653Z,25.70
2022-08-10T20:35:56.278Z,25.70
2022-08-10T20:38:42.685Z,25.60
2022-08-10T20:41:28.452Z,25.50
2022-08-10T20:44:19.742Z,25.40
2022-08-10T20:47:03.973Z,25.40
2022-08-10T20:49:50.063Z,25.30
2022-08-10T20:52:20.945Z,25.20
2022-08-10T20:54:52.929Z,25.10
2022-08-10T20:57:57.654Z,25.00
2022-08-10T21:00:48.283Z,25.00
2022-08-10T21:03:33.216Z,24.80
2022-08-10T21:06:31.398Z,24.80
2022-08-10T21:09:20.567Z,24.70
2022-08-10T21:11:50.243Z,24.60
2022-08-10T21:14:52.036Z,24.50
2022-08-10T21:18:06.471Z,24.40
2022-08-10T21:20:42.024Z,24.40
2022-08-10T21:23:15.015Z,24.30
2022-08-10T21:26:15.862Z,24.20
2022-08-10T21:29:08.790Z,24.10
2022-08-10T21:32:08.837Z,24.00
2022-08-10T21:35:03.443Z,24.00
2022-08-10T21:37:44.650Z,23.90
2022-08-10T21:40:34.724Z,23.80
2022-08-10T21:43:52.979Z,23.70
2022-08-10T21:47:02.919Z,23.70
2022-08-10T21:50:07.948Z,23.60
2022-08-10T21:53:12.061Z,23.50
2022-08-10T21:56:16.199Z,23.50
2022-08-10T21:59:23.848Z,23.40
2022-08-10T22:02:21.617Z,23.30
2022-08-10T22:05:20.964Z,23.30
2022-08-10T22:08:15.579Z,23.20
2022-08-10T22:11:13.664Z,23.20
2022-08-10T22:14:05.848Z,23.10
2022-08-10T22:17:04.145Z,23.00
2022-08-10T22:19:56.566Z,23.00
2022-08-10T22:22:56.899Z,23.00
2022-08-10T22:29:16.415Z,22.90
2022-08-10T22:31:26.142Z,22.90
2022-08-10T22:32:02.011Z,22.80
2022-08-10T22:35:09.859Z,22.80
2022-08-10T22:38:14.099Z,22.70
2022-08-10T22:41:03.980Z,22.70
2022-08-10T22:43:50.960Z,22.60
2022-08-10T22:46:42.108Z,22.50
2022-08-10T22:49:10.786Z,22.50
2022-08-10T22:52:02.597Z,22.40
2022-08-10T22:55:23.667Z,22.40
2022-08-10T22:58:12.506Z,22.30
2022-08-10T23:00:40.554Z,22.30
2022-08-10T23:03:22.569Z,22.30
2022-08-10T23:05:56.270Z,22.20
2022-08-10T23:08:32.294Z,22.20
2022-08-10T23:11:08.259Z,22.10
2022-08-10T23:13:40.432Z,22.10
2022-08-10T23:16:48.480Z,22.10
2022-08-10T23:19:43.416Z,22.10
2022-08-10T23:22:19.397Z,22.00
2022-08-10T23:25:09.200Z,22.00
2022-08-10T23:27:40.710Z,22.00
2022-08-10T23:30:17.784Z,21.90
2022-08-10T23:32:49.070Z,21.90
2022-08-10T23:36:30.211Z,21.80
2022-08-10T23:38:07.323Z,21.80
2022-08-10T23:40:36.181Z,21.80
2022-08-10T23:43:05.457Z,21.70
2022-08-10T23:45:53.052Z,21.70
2022-08-10T23:48:23.735Z,21.70
2022-08-10T23:50:59.247Z,21.60
2022-08-10T23:53:32.933Z,21.60
2022-08-10T23:56:03.127Z,21.50
2022-08-10T23:58:45.625Z,21.50
